<?xml version="1.0" encoding="UTF-8" standalone="no" ?>
<gpx xmlns="http://www.topografix.com/GPX/1/1" xmlns:xsi="http://www.w3.org/2001/XMLSchema-instance" xsi:schemaLocation="http://www.topografix.com/GPX/1/1 http://www.topografix.com/GPX/1/1/gpx.xsd" version="1.1" creator="VisuGPX - https://www.visugpx.com">
  <metadata>
    <name>st rémy promenade des petits ponts chevreuse</name>
  </metadata>
  <trk>
    <name><![CDATA[st rémy promenade des petits ponts chevreuse_1]]></name>
    <trkseg>
      <trkpt lat="48.70392" lon="2.06877">
        <ele>73.5</ele>
      </trkpt>
      <trkpt lat="48.70412" lon="2.06865">
        <ele>73</ele>
      </trkpt>
      <trkpt lat="48.70401" lon="2.06805">
        <ele>74</ele>
      </trkpt>
      <trkpt lat="48.70461" lon="2.06783">
        <ele>73</ele>
      </trkpt>
      <trkpt lat="48.70473" lon="2.06788">
        <ele>73</ele>
      </trkpt>
      <trkpt lat="48.70498" lon="2.06878">
        <ele>73</ele>
      </trkpt>
      <trkpt lat="48.70533" lon="2.06854">
        <ele>72.9</ele>
      </trkpt>
      <trkpt lat="48.7054" lon="2.06795">
        <ele>72.6</ele>
      </trkpt>
      <trkpt lat="48.70626" lon="2.06642">
        <ele>72.6</ele>
      </trkpt>
      <trkpt lat="48.70562" lon="2.06431">
        <ele>73.6</ele>
      </trkpt>
      <trkpt lat="48.70506" lon="2.06294">
        <ele>74.2</ele>
      </trkpt>
      <trkpt lat="48.70452" lon="2.0605">
        <ele>74.8</ele>
      </trkpt>
      <trkpt lat="48.70414" lon="2.05829">
        <ele>74.9</ele>
      </trkpt>
      <trkpt lat="48.70431" lon="2.05517">
        <ele>82.4</ele>
        <time>2016-09-25T11:36:06.000+02:00</time>
      </trkpt>
      <trkpt lat="48.70434" lon="2.05503">
        <ele>81.9</ele>
        <time>2016-09-25T11:35:57.000+02:00</time>
      </trkpt>
      <trkpt lat="48.70436" lon="2.0549">
        <ele>82</ele>
        <time>2016-09-25T11:35:49.000+02:00</time>
      </trkpt>
      <trkpt lat="48.7044" lon="2.05477">
        <ele>82.5</ele>
        <time>2016-09-25T11:35:40.000+02:00</time>
      </trkpt>
      <trkpt lat="48.70442" lon="2.05464">
        <ele>82.8</ele>
        <time>2016-09-25T11:35:32.000+02:00</time>
      </trkpt>
      <trkpt lat="48.70448" lon="2.05453">
        <ele>83.2</ele>
        <time>2016-09-25T11:35:24.000+02:00</time>
      </trkpt>
      <trkpt lat="48.70451" lon="2.05441">
        <ele>84.1</ele>
        <time>2016-09-25T11:35:16.000+02:00</time>
      </trkpt>
      <trkpt lat="48.70455" lon="2.05428">
        <ele>83.7</ele>
        <time>2016-09-25T11:35:07.000+02:00</time>
      </trkpt>
      <trkpt lat="48.70463" lon="2.05422">
        <ele>83.3</ele>
        <time>2016-09-25T11:35:00.000+02:00</time>
      </trkpt>
      <trkpt lat="48.70469" lon="2.05411">
        <ele>82.1</ele>
        <time>2016-09-25T11:34:51.000+02:00</time>
      </trkpt>
      <trkpt lat="48.70473" lon="2.05398">
        <ele>81.3</ele>
        <time>2016-09-25T11:34:42.000+02:00</time>
      </trkpt>
      <trkpt lat="48.70478" lon="2.05385">
        <ele>81.4</ele>
        <time>2016-09-25T11:34:34.000+02:00</time>
      </trkpt>
      <trkpt lat="48.70485" lon="2.05375">
        <ele>81.8</ele>
        <time>2016-09-25T11:34:26.000+02:00</time>
      </trkpt>
      <trkpt lat="48.7049" lon="2.05364">
        <ele>81.9</ele>
        <time>2016-09-25T11:34:17.000+02:00</time>
      </trkpt>
      <trkpt lat="48.70494" lon="2.05351">
        <ele>83</ele>
        <time>2016-09-25T11:34:09.000+02:00</time>
      </trkpt>
      <trkpt lat="48.70499" lon="2.05341">
        <ele>82.8</ele>
        <time>2016-09-25T11:34:01.000+02:00</time>
      </trkpt>
      <trkpt lat="48.70503" lon="2.05327">
        <ele>81.2</ele>
        <time>2016-09-25T11:33:52.000+02:00</time>
      </trkpt>
      <trkpt lat="48.70505" lon="2.05313">
        <ele>79.7</ele>
        <time>2016-09-25T11:33:44.000+02:00</time>
      </trkpt>
      <trkpt lat="48.70507" lon="2.053">
        <ele>81.1</ele>
        <time>2016-09-25T11:33:35.000+02:00</time>
      </trkpt>
      <trkpt lat="48.70508" lon="2.05286">
        <ele>80.5</ele>
        <time>2016-09-25T11:33:26.000+02:00</time>
      </trkpt>
      <trkpt lat="48.70511" lon="2.05273">
        <ele>80</ele>
        <time>2016-09-25T11:33:17.000+02:00</time>
      </trkpt>
      <trkpt lat="48.70517" lon="2.05262">
        <ele>80.7</ele>
        <time>2016-09-25T11:33:09.000+02:00</time>
      </trkpt>
      <trkpt lat="48.70526" lon="2.05256">
        <ele>81.7</ele>
        <time>2016-09-25T11:33:01.000+02:00</time>
      </trkpt>
      <trkpt lat="48.7053" lon="2.05243">
        <ele>81.2</ele>
        <time>2016-09-25T11:32:53.000+02:00</time>
      </trkpt>
      <trkpt lat="48.70534" lon="2.05231">
        <ele>79.8</ele>
        <time>2016-09-25T11:32:46.000+02:00</time>
      </trkpt>
      <trkpt lat="48.70543" lon="2.05225">
        <ele>81.8</ele>
        <time>2016-09-25T11:32:39.000+02:00</time>
      </trkpt>
      <trkpt lat="48.70549" lon="2.05215">
        <ele>83.4</ele>
        <time>2016-09-25T11:32:32.000+02:00</time>
      </trkpt>
      <trkpt lat="48.70555" lon="2.05206">
        <ele>83.3</ele>
        <time>2016-09-25T11:32:22.000+02:00</time>
      </trkpt>
      <trkpt lat="48.70562" lon="2.05198">
        <ele>80.9</ele>
        <time>2016-09-25T11:32:10.000+02:00</time>
      </trkpt>
      <trkpt lat="48.70559" lon="2.05187">
        <ele>80</ele>
        <time>2016-09-25T11:31:59.000+02:00</time>
      </trkpt>
      <trkpt lat="48.7056" lon="2.05173">
        <ele>79.6</ele>
        <time>2016-09-25T11:31:52.000+02:00</time>
      </trkpt>
      <trkpt lat="48.70566" lon="2.05164">
        <ele>80.5</ele>
        <time>2016-09-25T11:31:40.000+02:00</time>
      </trkpt>
      <trkpt lat="48.70575" lon="2.05161">
        <ele>82.7</ele>
        <time>2016-09-25T11:31:35.000+02:00</time>
      </trkpt>
      <trkpt lat="48.70584" lon="2.05154">
        <ele>83.2</ele>
        <time>2016-09-25T11:31:28.000+02:00</time>
      </trkpt>
      <trkpt lat="48.70593" lon="2.05154">
        <ele>83.1</ele>
        <time>2016-09-25T11:31:20.000+02:00</time>
      </trkpt>
      <trkpt lat="48.70601" lon="2.05151">
        <ele>81.4</ele>
        <time>2016-09-25T11:31:07.000+02:00</time>
      </trkpt>
      <trkpt lat="48.706" lon="2.05138">
        <ele>84.5</ele>
        <time>2016-09-25T11:31:00.000+02:00</time>
      </trkpt>
      <trkpt lat="48.70602" lon="2.05123">
        <ele>82.4</ele>
        <time>2016-09-25T11:30:52.000+02:00</time>
      </trkpt>
      <trkpt lat="48.70603" lon="2.0511">
        <ele>81.6</ele>
        <time>2016-09-25T11:30:45.000+02:00</time>
      </trkpt>
      <trkpt lat="48.70603" lon="2.05095">
        <ele>87.4</ele>
        <time>2016-09-25T11:30:38.000+02:00</time>
      </trkpt>
      <trkpt lat="48.70609" lon="2.05084">
        <ele>87</ele>
        <time>2016-09-25T11:30:30.000+02:00</time>
      </trkpt>
      <trkpt lat="48.70611" lon="2.05069">
        <ele>85.6</ele>
        <time>2016-09-25T11:30:22.000+02:00</time>
      </trkpt>
      <trkpt lat="48.70615" lon="2.05057">
        <ele>82</ele>
        <time>2016-09-25T11:30:14.000+02:00</time>
      </trkpt>
      <trkpt lat="48.70616" lon="2.05044">
        <ele>79.8</ele>
        <time>2016-09-25T11:30:06.000+02:00</time>
      </trkpt>
      <trkpt lat="48.70621" lon="2.05032">
        <ele>79.9</ele>
        <time>2016-09-25T11:29:58.000+02:00</time>
      </trkpt>
      <trkpt lat="48.70624" lon="2.0502">
        <ele>80.8</ele>
        <time>2016-09-25T11:29:51.000+02:00</time>
      </trkpt>
      <trkpt lat="48.70625" lon="2.05005">
        <ele>83</ele>
        <time>2016-09-25T11:29:43.000+02:00</time>
      </trkpt>
      <trkpt lat="48.70626" lon="2.0499">
        <ele>83.9</ele>
        <time>2016-09-25T11:29:35.000+02:00</time>
      </trkpt>
      <trkpt lat="48.70627" lon="2.04976">
        <ele>84.7</ele>
        <time>2016-09-25T11:29:28.000+02:00</time>
      </trkpt>
      <trkpt lat="48.7063" lon="2.04964">
        <ele>84.3</ele>
        <time>2016-09-25T11:29:21.000+02:00</time>
      </trkpt>
      <trkpt lat="48.70631" lon="2.0495">
        <ele>84.5</ele>
        <time>2016-09-25T11:29:14.000+02:00</time>
      </trkpt>
      <trkpt lat="48.70634" lon="2.04939">
        <ele>86.5</ele>
        <time>2016-09-25T11:29:07.000+02:00</time>
      </trkpt>
      <trkpt lat="48.70636" lon="2.04925">
        <ele>88</ele>
        <time>2016-09-25T11:28:59.000+02:00</time>
      </trkpt>
      <trkpt lat="48.70636" lon="2.04913">
        <ele>86.9</ele>
        <time>2016-09-25T11:28:46.000+02:00</time>
      </trkpt>
      <trkpt lat="48.70636" lon="2.04899">
        <ele>86.1</ele>
        <time>2016-09-25T11:28:38.000+02:00</time>
      </trkpt>
      <trkpt lat="48.70638" lon="2.04885">
        <ele>84.4</ele>
        <time>2016-09-25T11:28:30.000+02:00</time>
      </trkpt>
      <trkpt lat="48.7064" lon="2.0487">
        <ele>82</ele>
        <time>2016-09-25T11:28:22.000+02:00</time>
      </trkpt>
      <trkpt lat="48.70643" lon="2.04856">
        <ele>80.1</ele>
        <time>2016-09-25T11:28:15.000+02:00</time>
      </trkpt>
      <trkpt lat="48.70648" lon="2.04844">
        <ele>81.7</ele>
        <time>2016-09-25T11:28:08.000+02:00</time>
      </trkpt>
      <trkpt lat="48.70651" lon="2.04831">
        <ele>84.7</ele>
        <time>2016-09-25T11:28:02.000+02:00</time>
      </trkpt>
      <trkpt lat="48.70649" lon="2.04817">
        <ele>86.2</ele>
        <time>2016-09-25T11:27:55.000+02:00</time>
      </trkpt>
      <trkpt lat="48.70653" lon="2.04802">
        <ele>85.9</ele>
        <time>2016-09-25T11:27:46.000+02:00</time>
      </trkpt>
      <trkpt lat="48.70653" lon="2.04788">
        <ele>87.2</ele>
        <time>2016-09-25T11:27:37.000+02:00</time>
      </trkpt>
      <trkpt lat="48.70654" lon="2.04773">
        <ele>85.7</ele>
        <time>2016-09-25T11:27:28.000+02:00</time>
      </trkpt>
      <trkpt lat="48.70652" lon="2.0476">
        <ele>86</ele>
        <time>2016-09-25T11:27:19.000+02:00</time>
      </trkpt>
      <trkpt lat="48.70649" lon="2.04746">
        <ele>89.3</ele>
        <time>2016-09-25T11:27:11.000+02:00</time>
      </trkpt>
      <trkpt lat="48.70649" lon="2.04731">
        <ele>91.3</ele>
        <time>2016-09-25T11:27:03.000+02:00</time>
      </trkpt>
      <trkpt lat="48.70646" lon="2.04718">
        <ele>89.7</ele>
        <time>2016-09-25T11:26:56.000+02:00</time>
      </trkpt>
      <trkpt lat="48.70643" lon="2.04704">
        <ele>88.9</ele>
        <time>2016-09-25T11:26:49.000+02:00</time>
      </trkpt>
      <trkpt lat="48.70642" lon="2.0469">
        <ele>87.3</ele>
        <time>2016-09-25T11:26:40.000+02:00</time>
      </trkpt>
      <trkpt lat="48.70643" lon="2.04677">
        <ele>86.6</ele>
        <time>2016-09-25T11:26:32.000+02:00</time>
      </trkpt>
      <trkpt lat="48.70644" lon="2.04664">
        <ele>84.5</ele>
        <time>2016-09-25T11:26:23.000+02:00</time>
      </trkpt>
      <trkpt lat="48.70645" lon="2.04653">
        <ele>84</ele>
        <time>2016-09-25T11:26:08.000+02:00</time>
      </trkpt>
      <trkpt lat="48.70649" lon="2.04644">
        <ele>84.2</ele>
        <time>2016-09-25T11:25:55.000+02:00</time>
      </trkpt>
      <trkpt lat="48.70652" lon="2.0463">
        <ele>84.3</ele>
        <time>2016-09-25T11:25:47.000+02:00</time>
      </trkpt>
      <trkpt lat="48.70652" lon="2.04616">
        <ele>85.5</ele>
        <time>2016-09-25T11:25:40.000+02:00</time>
      </trkpt>
      <trkpt lat="48.70654" lon="2.04601">
        <ele>86.2</ele>
        <time>2016-09-25T11:25:31.000+02:00</time>
      </trkpt>
      <trkpt lat="48.70654" lon="2.04586">
        <ele>84.4</ele>
        <time>2016-09-25T11:25:23.000+02:00</time>
      </trkpt>
      <trkpt lat="48.70655" lon="2.04572">
        <ele>85.2</ele>
        <time>2016-09-25T11:25:14.000+02:00</time>
      </trkpt>
      <trkpt lat="48.70657" lon="2.04559">
        <ele>87</ele>
        <time>2016-09-25T11:25:06.000+02:00</time>
      </trkpt>
      <trkpt lat="48.70658" lon="2.04545">
        <ele>86</ele>
        <time>2016-09-25T11:24:58.000+02:00</time>
      </trkpt>
      <trkpt lat="48.70656" lon="2.04532">
        <ele>87.8</ele>
        <time>2016-09-25T11:24:51.000+02:00</time>
      </trkpt>
      <trkpt lat="48.70655" lon="2.04519">
        <ele>87.6</ele>
        <time>2016-09-25T11:24:44.000+02:00</time>
      </trkpt>
      <trkpt lat="48.70656" lon="2.04507">
        <ele>88.6</ele>
        <time>2016-09-25T11:24:37.000+02:00</time>
      </trkpt>
      <trkpt lat="48.7066" lon="2.04494">
        <ele>89</ele>
        <time>2016-09-25T11:24:29.000+02:00</time>
      </trkpt>
      <trkpt lat="48.70661" lon="2.04481">
        <ele>88.2</ele>
        <time>2016-09-25T11:24:21.000+02:00</time>
      </trkpt>
      <trkpt lat="48.70664" lon="2.04466">
        <ele>87.4</ele>
        <time>2016-09-25T11:24:11.000+02:00</time>
      </trkpt>
      <trkpt lat="48.70663" lon="2.04455">
        <ele>89.6</ele>
        <time>2016-09-25T11:24:01.000+02:00</time>
      </trkpt>
      <trkpt lat="48.70665" lon="2.04442">
        <ele>91</ele>
        <time>2016-09-25T11:23:54.000+02:00</time>
      </trkpt>
      <trkpt lat="48.70667" lon="2.04427">
        <ele>91</ele>
        <time>2016-09-25T11:23:47.000+02:00</time>
      </trkpt>
      <trkpt lat="48.70667" lon="2.04412">
        <ele>90.2</ele>
        <time>2016-09-25T11:23:39.000+02:00</time>
      </trkpt>
      <trkpt lat="48.70669" lon="2.04399">
        <ele>89.2</ele>
        <time>2016-09-25T11:23:31.000+02:00</time>
      </trkpt>
      <trkpt lat="48.7067" lon="2.04385">
        <ele>87.3</ele>
        <time>2016-09-25T11:23:22.000+02:00</time>
      </trkpt>
      <trkpt lat="48.70675" lon="2.04374">
        <ele>87.2</ele>
        <time>2016-09-25T11:23:14.000+02:00</time>
      </trkpt>
      <trkpt lat="48.70677" lon="2.04361">
        <ele>88.8</ele>
        <time>2016-09-25T11:23:07.000+02:00</time>
      </trkpt>
      <trkpt lat="48.70677" lon="2.04347">
        <ele>92.1</ele>
        <time>2016-09-25T11:23:01.000+02:00</time>
      </trkpt>
      <trkpt lat="48.70677" lon="2.04331">
        <ele>96.2</ele>
        <time>2016-09-25T11:22:53.000+02:00</time>
      </trkpt>
      <trkpt lat="48.70676" lon="2.04317">
        <ele>93.7</ele>
        <time>2016-09-25T11:22:45.000+02:00</time>
      </trkpt>
      <trkpt lat="48.70672" lon="2.04303">
        <ele>90.9</ele>
        <time>2016-09-25T11:22:37.000+02:00</time>
      </trkpt>
      <trkpt lat="48.7067" lon="2.04291">
        <ele>85.9</ele>
        <time>2016-09-25T11:22:25.000+02:00</time>
      </trkpt>
      <trkpt lat="48.70668" lon="2.04278">
        <ele>85.3</ele>
        <time>2016-09-25T11:22:17.000+02:00</time>
      </trkpt>
      <trkpt lat="48.7067" lon="2.04264">
        <ele>86.8</ele>
        <time>2016-09-25T11:22:09.000+02:00</time>
      </trkpt>
      <trkpt lat="48.70674" lon="2.0425">
        <ele>89.4</ele>
        <time>2016-09-25T11:22:01.000+02:00</time>
      </trkpt>
      <trkpt lat="48.70677" lon="2.04236">
        <ele>91.2</ele>
        <time>2016-09-25T11:21:54.000+02:00</time>
      </trkpt>
      <trkpt lat="48.70676" lon="2.04223">
        <ele>92.5</ele>
        <time>2016-09-25T11:21:45.000+02:00</time>
      </trkpt>
      <trkpt lat="48.70677" lon="2.0421">
        <ele>91.1</ele>
        <time>2016-09-25T11:21:35.000+02:00</time>
      </trkpt>
      <trkpt lat="48.70677" lon="2.04195">
        <ele>94.5</ele>
        <time>2016-09-25T11:21:27.000+02:00</time>
      </trkpt>
      <trkpt lat="48.70678" lon="2.0418">
        <ele>98</ele>
        <time>2016-09-25T11:21:19.000+02:00</time>
      </trkpt>
      <trkpt lat="48.70679" lon="2.04166">
        <ele>101.5</ele>
        <time>2016-09-25T11:21:12.000+02:00</time>
      </trkpt>
      <trkpt lat="48.70678" lon="2.04151">
        <ele>101.5</ele>
        <time>2016-09-25T11:21:05.000+02:00</time>
      </trkpt>
      <trkpt lat="48.70677" lon="2.04137">
        <ele>99.4</ele>
        <time>2016-09-25T11:20:58.000+02:00</time>
      </trkpt>
      <trkpt lat="48.70678" lon="2.04124">
        <ele>99.3</ele>
        <time>2016-09-25T11:20:49.000+02:00</time>
      </trkpt>
      <trkpt lat="48.7068" lon="2.0411">
        <ele>99.3</ele>
        <time>2016-09-25T11:20:40.000+02:00</time>
      </trkpt>
      <trkpt lat="48.70679" lon="2.04096">
        <ele>97.5</ele>
        <time>2016-09-25T11:20:31.000+02:00</time>
      </trkpt>
      <trkpt lat="48.7068" lon="2.04082">
        <ele>96.3</ele>
        <time>2016-09-25T11:20:23.000+02:00</time>
      </trkpt>
      <trkpt lat="48.70677" lon="2.04069">
        <ele>98.7</ele>
        <time>2016-09-25T11:20:15.000+02:00</time>
      </trkpt>
      <trkpt lat="48.70675" lon="2.04055">
        <ele>103.5</ele>
        <time>2016-09-25T11:20:08.000+02:00</time>
      </trkpt>
      <trkpt lat="48.70675" lon="2.04041">
        <ele>100</ele>
        <time>2016-09-25T11:19:59.000+02:00</time>
      </trkpt>
      <trkpt lat="48.70674" lon="2.04028">
        <ele>96.9</ele>
        <time>2016-09-25T11:19:49.000+02:00</time>
      </trkpt>
      <trkpt lat="48.70671" lon="2.04014">
        <ele>93.7</ele>
        <time>2016-09-25T11:19:40.000+02:00</time>
      </trkpt>
      <trkpt lat="48.70667" lon="2.04001">
        <ele>93.7</ele>
        <time>2016-09-25T11:19:33.000+02:00</time>
      </trkpt>
      <trkpt lat="48.70669" lon="2.03988">
        <ele>93.7</ele>
        <time>2016-09-25T11:19:22.000+02:00</time>
      </trkpt>
      <trkpt lat="48.70674" lon="2.03977">
        <ele>89.1</ele>
        <time>2016-09-25T11:19:11.000+02:00</time>
      </trkpt>
      <trkpt lat="48.70682" lon="2.03972">
        <ele>90.2</ele>
        <time>2016-09-25T11:19:01.000+02:00</time>
      </trkpt>
      <trkpt lat="48.70692" lon="2.03974">
        <ele>91.7</ele>
        <time>2016-09-25T11:18:50.000+02:00</time>
      </trkpt>
      <trkpt lat="48.70702" lon="2.03972">
        <ele>96.2</ele>
        <time>2016-09-25T11:18:43.000+02:00</time>
      </trkpt>
      <trkpt lat="48.70711" lon="2.03969">
        <ele>100.9</ele>
        <time>2016-09-25T11:18:36.000+02:00</time>
      </trkpt>
      <trkpt lat="48.7072" lon="2.03964">
        <ele>103.2</ele>
        <time>2016-09-25T11:18:26.000+02:00</time>
      </trkpt>
      <trkpt lat="48.7073" lon="2.03959">
        <ele>105.9</ele>
        <time>2016-09-25T11:18:19.000+02:00</time>
      </trkpt>
      <trkpt lat="48.70738" lon="2.03952">
        <ele>101.5</ele>
        <time>2016-09-25T11:18:13.000+02:00</time>
      </trkpt>
      <trkpt lat="48.70745" lon="2.03944">
        <ele>90.9</ele>
        <time>2016-09-25T11:18:08.000+02:00</time>
      </trkpt>
      <trkpt lat="48.70754" lon="2.03938">
        <ele>85.5</ele>
        <time>2016-09-25T11:17:59.000+02:00</time>
      </trkpt>
      <trkpt lat="48.70761" lon="2.03943">
        <ele>87.4</ele>
        <time>2016-09-25T11:17:50.000+02:00</time>
      </trkpt>
      <trkpt lat="48.70766" lon="2.03957">
        <ele>88.1</ele>
        <time>2016-09-25T11:17:41.000+02:00</time>
      </trkpt>
      <trkpt lat="48.70769" lon="2.03969">
        <ele>89.5</ele>
        <time>2016-09-25T11:17:33.000+02:00</time>
      </trkpt>
      <trkpt lat="48.70769" lon="2.03981">
        <ele>90.6</ele>
        <time>2016-09-25T11:17:25.000+02:00</time>
      </trkpt>
      <trkpt lat="48.70766" lon="2.03995">
        <ele>90.1</ele>
        <time>2016-09-25T11:17:17.000+02:00</time>
      </trkpt>
      <trkpt lat="48.70768" lon="2.04008">
        <ele>90.3</ele>
        <time>2016-09-25T11:17:08.000+02:00</time>
      </trkpt>
      <trkpt lat="48.70766" lon="2.04022">
        <ele>90</ele>
        <time>2016-09-25T11:16:59.000+02:00</time>
      </trkpt>
      <trkpt lat="48.70766" lon="2.04036">
        <ele>88.8</ele>
        <time>2016-09-25T11:16:48.000+02:00</time>
      </trkpt>
      <trkpt lat="48.70765" lon="2.04049">
        <ele>88.8</ele>
        <time>2016-09-25T11:16:40.000+02:00</time>
      </trkpt>
      <trkpt lat="48.70764" lon="2.04063">
        <ele>90</ele>
        <time>2016-09-25T11:16:32.000+02:00</time>
      </trkpt>
      <trkpt lat="48.70761" lon="2.04079">
        <ele>93</ele>
        <time>2016-09-25T11:16:24.000+02:00</time>
      </trkpt>
      <trkpt lat="48.70758" lon="2.04093">
        <ele>96.8</ele>
        <time>2016-09-25T11:16:16.000+02:00</time>
      </trkpt>
      <trkpt lat="48.70758" lon="2.04107">
        <ele>106.5</ele>
        <time>2016-09-25T11:16:08.000+02:00</time>
      </trkpt>
      <trkpt lat="48.70755" lon="2.04121">
        <ele>120</ele>
        <time>2016-09-25T11:16:02.000+02:00</time>
      </trkpt>
      <trkpt lat="48.70759" lon="2.04118">
        <ele>106</ele>
        <time>2016-09-25T11:15:49.000+02:00</time>
      </trkpt>
      <trkpt lat="48.70768" lon="2.04118">
        <ele>103.2</ele>
        <time>2016-09-25T11:15:35.000+02:00</time>
      </trkpt>
      <trkpt lat="48.70777" lon="2.0412">
        <ele>104.5</ele>
        <time>2016-09-25T11:15:24.000+02:00</time>
      </trkpt>
      <trkpt lat="48.70785" lon="2.04122">
        <ele>102</ele>
        <time>2016-09-25T11:15:09.000+02:00</time>
      </trkpt>
      <trkpt lat="48.70792" lon="2.04118">
        <ele>107.6</ele>
        <time>2016-09-25T11:14:54.000+02:00</time>
      </trkpt>
      <trkpt lat="48.70799" lon="2.04112">
        <ele>120.6</ele>
        <time>2016-09-25T11:14:44.000+02:00</time>
      </trkpt>
      <trkpt lat="48.70808" lon="2.04109">
        <ele>132</ele>
        <time>2016-09-25T11:14:38.000+02:00</time>
      </trkpt>
      <trkpt lat="48.70818" lon="2.04108">
        <ele>135.3</ele>
        <time>2016-09-25T11:14:34.000+02:00</time>
      </trkpt>
      <trkpt lat="48.70825" lon="2.04101">
        <ele>129.4</ele>
        <time>2016-09-25T11:14:29.000+02:00</time>
      </trkpt>
      <trkpt lat="48.70826" lon="2.04097">
        <ele>119.6</ele>
        <time>2016-09-25T11:14:19.000+02:00</time>
      </trkpt>
      <trkpt lat="48.70827" lon="2.04092">
        <ele>106.4</ele>
        <time>2016-09-25T11:14:03.000+02:00</time>
      </trkpt>
      <trkpt lat="48.70829" lon="2.04083">
        <ele>103.8</ele>
        <time>2016-09-25T11:13:43.000+02:00</time>
      </trkpt>
      <trkpt lat="48.70829" lon="2.0407">
        <ele>96</ele>
        <time>2016-09-25T11:13:33.000+02:00</time>
      </trkpt>
      <trkpt lat="48.70832" lon="2.04063">
        <ele>92.7</ele>
        <time>2016-09-25T11:13:14.000+02:00</time>
      </trkpt>
      <trkpt lat="48.70828" lon="2.04064">
        <ele>97.2</ele>
        <time>2016-09-25T11:13:00.000+02:00</time>
      </trkpt>
      <trkpt lat="48.70822" lon="2.04061">
        <ele>100.5</ele>
        <time>2016-09-25T11:12:44.000+02:00</time>
      </trkpt>
      <trkpt lat="48.70826" lon="2.04057">
        <ele>93.8</ele>
        <time>2016-09-25T11:12:26.000+02:00</time>
      </trkpt>
      <trkpt lat="48.70826" lon="2.04054">
        <ele>100.3</ele>
        <time>2016-09-25T11:12:09.000+02:00</time>
      </trkpt>
      <trkpt lat="48.70833" lon="2.04048">
        <ele>101.7</ele>
        <time>2016-09-25T11:11:59.000+02:00</time>
      </trkpt>
      <trkpt lat="48.70837" lon="2.04039">
        <ele>102.5</ele>
        <time>2016-09-25T11:11:51.000+02:00</time>
      </trkpt>
      <trkpt lat="48.70844" lon="2.04031">
        <ele>96.5</ele>
        <time>2016-09-25T11:11:43.000+02:00</time>
      </trkpt>
      <trkpt lat="48.7085" lon="2.04021">
        <ele>95.9</ele>
        <time>2016-09-25T11:11:35.000+02:00</time>
      </trkpt>
      <trkpt lat="48.70857" lon="2.04013">
        <ele>92.7</ele>
        <time>2016-09-25T11:11:27.000+02:00</time>
      </trkpt>
      <trkpt lat="48.70865" lon="2.04014">
        <ele>94.2</ele>
        <time>2016-09-25T11:11:15.000+02:00</time>
      </trkpt>
      <trkpt lat="48.70871" lon="2.04013">
        <ele>106.7</ele>
        <time>2016-09-25T11:11:00.000+02:00</time>
      </trkpt>
      <trkpt lat="48.7088" lon="2.04016">
        <ele>117.2</ele>
        <time>2016-09-25T11:10:54.000+02:00</time>
      </trkpt>
      <trkpt lat="48.70884" lon="2.04015">
        <ele>109.1</ele>
        <time>2016-09-25T11:10:43.000+02:00</time>
      </trkpt>
      <trkpt lat="48.70892" lon="2.04022">
        <ele>107.2</ele>
        <time>2016-09-25T11:10:32.000+02:00</time>
      </trkpt>
      <trkpt lat="48.70901" lon="2.04022">
        <ele>108.7</ele>
        <time>2016-09-25T11:10:22.000+02:00</time>
      </trkpt>
      <trkpt lat="48.70906" lon="2.04033">
        <ele>106.4</ele>
        <time>2016-09-25T11:10:11.000+02:00</time>
      </trkpt>
      <trkpt lat="48.70904" lon="2.04047">
        <ele>108.5</ele>
        <time>2016-09-25T11:10:00.000+02:00</time>
      </trkpt>
      <trkpt lat="48.709" lon="2.0406">
        <ele>111.3</ele>
        <time>2016-09-25T11:09:51.000+02:00</time>
      </trkpt>
      <trkpt lat="48.70896" lon="2.04072">
        <ele>113.2</ele>
        <time>2016-09-25T11:09:41.000+02:00</time>
      </trkpt>
      <trkpt lat="48.709" lon="2.04086">
        <ele>117.6</ele>
        <time>2016-09-25T11:09:32.000+02:00</time>
      </trkpt>
      <trkpt lat="48.70901" lon="2.04098">
        <ele>125.7</ele>
        <time>2016-09-25T11:09:25.000+02:00</time>
      </trkpt>
      <trkpt lat="48.70904" lon="2.04113">
        <ele>129.1</ele>
        <time>2016-09-25T11:09:16.000+02:00</time>
      </trkpt>
      <trkpt lat="48.70905" lon="2.04127">
        <ele>121.9</ele>
        <time>2016-09-25T11:09:06.000+02:00</time>
      </trkpt>
      <trkpt lat="48.70905" lon="2.04142">
        <ele>123.1</ele>
        <time>2016-09-25T11:08:57.000+02:00</time>
      </trkpt>
      <trkpt lat="48.70907" lon="2.04157">
        <ele>128.5</ele>
        <time>2016-09-25T11:08:49.000+02:00</time>
      </trkpt>
      <trkpt lat="48.70905" lon="2.04172">
        <ele>132</ele>
        <time>2016-09-25T11:08:42.000+02:00</time>
      </trkpt>
      <trkpt lat="48.70904" lon="2.04186">
        <ele>134.4</ele>
        <time>2016-09-25T11:08:34.000+02:00</time>
      </trkpt>
      <trkpt lat="48.70907" lon="2.04198">
        <ele>129.7</ele>
        <time>2016-09-25T11:08:22.000+02:00</time>
      </trkpt>
      <trkpt lat="48.7091" lon="2.04209">
        <ele>123.4</ele>
        <time>2016-09-25T11:08:10.000+02:00</time>
      </trkpt>
      <trkpt lat="48.70918" lon="2.04215">
        <ele>122</ele>
        <time>2016-09-25T11:07:56.000+02:00</time>
      </trkpt>
      <trkpt lat="48.70919" lon="2.04225">
        <ele>128.4</ele>
        <time>2016-09-25T11:07:43.000+02:00</time>
      </trkpt>
      <trkpt lat="48.7092" lon="2.04219">
        <ele>135</ele>
        <time>2016-09-25T11:07:33.000+02:00</time>
      </trkpt>
      <trkpt lat="48.70922" lon="2.04206">
        <ele>137.3</ele>
        <time>2016-09-25T11:07:24.000+02:00</time>
      </trkpt>
      <trkpt lat="48.70924" lon="2.04194">
        <ele>140.7</ele>
        <time>2016-09-25T11:07:11.000+02:00</time>
      </trkpt>
      <trkpt lat="48.70926" lon="2.04195">
        <ele>142.4</ele>
        <time>2016-09-25T11:06:54.000+02:00</time>
      </trkpt>
      <trkpt lat="48.70922" lon="2.04203">
        <ele>149.5</ele>
        <time>2016-09-25T11:06:34.000+02:00</time>
      </trkpt>
      <trkpt lat="48.70928" lon="2.04197">
        <ele>139.9</ele>
        <time>2016-09-25T11:06:20.000+02:00</time>
      </trkpt>
      <trkpt lat="48.70929" lon="2.042">
        <ele>142.6</ele>
        <time>2016-09-25T11:06:03.000+02:00</time>
      </trkpt>
      <trkpt lat="48.70926" lon="2.04192">
        <ele>148</ele>
        <time>2016-09-25T11:05:48.000+02:00</time>
      </trkpt>
      <trkpt lat="48.70933" lon="2.04189">
        <ele>145.2</ele>
        <time>2016-09-25T11:05:37.000+02:00</time>
      </trkpt>
      <trkpt lat="48.70938" lon="2.04179">
        <ele>142.5</ele>
        <time>2016-09-25T11:05:30.000+02:00</time>
      </trkpt>
      <trkpt lat="48.70944" lon="2.04169">
        <ele>136.3</ele>
        <time>2016-09-25T11:05:20.000+02:00</time>
      </trkpt>
      <trkpt lat="48.7095" lon="2.0417">
        <ele>134.5</ele>
        <time>2016-09-25T11:05:09.000+02:00</time>
      </trkpt>
      <trkpt lat="48.7095" lon="2.04183">
        <ele>135.8</ele>
        <time>2016-09-25T11:04:56.000+02:00</time>
      </trkpt>
      <trkpt lat="48.70951" lon="2.04197">
        <ele>135.5</ele>
        <time>2016-09-25T11:04:45.000+02:00</time>
      </trkpt>
      <trkpt lat="48.70952" lon="2.0421">
        <ele>139.6</ele>
        <time>2016-09-25T11:04:32.000+02:00</time>
      </trkpt>
      <trkpt lat="48.70952" lon="2.04215">
        <ele>145.9</ele>
        <time>2016-09-25T11:04:13.000+02:00</time>
      </trkpt>
      <trkpt lat="48.70958" lon="2.04203">
        <ele>144.6</ele>
        <time>2016-09-25T11:04:04.000+02:00</time>
      </trkpt>
      <trkpt lat="48.70961" lon="2.04188">
        <ele>146.6</ele>
        <time>2016-09-25T11:03:52.000+02:00</time>
      </trkpt>
      <trkpt lat="48.70964" lon="2.04175">
        <ele>152.2</ele>
        <time>2016-09-25T11:03:44.000+02:00</time>
      </trkpt>
      <trkpt lat="48.70972" lon="2.04168">
        <ele>153.7</ele>
        <time>2016-09-25T11:03:35.000+02:00</time>
      </trkpt>
      <trkpt lat="48.70979" lon="2.04159">
        <ele>155.7</ele>
        <time>2016-09-25T11:03:26.000+02:00</time>
      </trkpt>
      <trkpt lat="48.70988" lon="2.04158">
        <ele>158.3</ele>
        <time>2016-09-25T11:03:12.000+02:00</time>
      </trkpt>
      <trkpt lat="48.70997" lon="2.04157">
        <ele>157.9</ele>
        <time>2016-09-25T11:03:04.000+02:00</time>
      </trkpt>
      <trkpt lat="48.71007" lon="2.04154">
        <ele>156.2</ele>
        <time>2016-09-25T11:02:54.000+02:00</time>
      </trkpt>
      <trkpt lat="48.71012" lon="2.04145">
        <ele>156.8</ele>
        <time>2016-09-25T11:02:31.000+02:00</time>
      </trkpt>
      <trkpt lat="48.71016" lon="2.04144">
        <ele>155</ele>
        <time>2016-09-25T11:01:55.000+02:00</time>
      </trkpt>
      <trkpt lat="48.71017" lon="2.04147">
        <ele>156.2</ele>
        <time>2016-09-25T11:01:06.000+02:00</time>
      </trkpt>
      <trkpt lat="48.71015" lon="2.04146">
        <ele>157.3</ele>
        <time>2016-09-25T11:00:41.000+02:00</time>
      </trkpt>
      <trkpt lat="48.71013" lon="2.04151">
        <ele>159.1</ele>
        <time>2016-09-25T11:00:15.000+02:00</time>
      </trkpt>
      <trkpt lat="48.71015" lon="2.04144">
        <ele>154.8</ele>
        <time>2016-09-25T10:59:55.000+02:00</time>
      </trkpt>
      <trkpt lat="48.71012" lon="2.0414">
        <ele>153.3</ele>
        <time>2016-09-25T10:59:37.000+02:00</time>
      </trkpt>
      <trkpt lat="48.71015" lon="2.04138">
        <ele>152.2</ele>
        <time>2016-09-25T10:59:10.000+02:00</time>
      </trkpt>
      <trkpt lat="48.71013" lon="2.04139">
        <ele>157.5</ele>
        <time>2016-09-25T10:58:49.000+02:00</time>
      </trkpt>
      <trkpt lat="48.71014" lon="2.04142">
        <ele>157.1</ele>
        <time>2016-09-25T10:58:16.000+02:00</time>
      </trkpt>
      <trkpt lat="48.71012" lon="2.04141">
        <ele>158.6</ele>
        <time>2016-09-25T10:57:46.000+02:00</time>
      </trkpt>
      <trkpt lat="48.71012" lon="2.04141">
        <ele>153.4</ele>
        <time>2016-09-25T10:57:04.000+02:00</time>
      </trkpt>
      <trkpt lat="48.71011" lon="2.0414">
        <ele>154.9</ele>
        <time>2016-09-25T10:56:36.000+02:00</time>
      </trkpt>
      <trkpt lat="48.71012" lon="2.0414">
        <ele>156.2</ele>
        <time>2016-09-25T10:56:15.000+02:00</time>
      </trkpt>
      <trkpt lat="48.71014" lon="2.04138">
        <ele>153.5</ele>
        <time>2016-09-25T10:55:45.000+02:00</time>
      </trkpt>
      <trkpt lat="48.71017" lon="2.04136">
        <ele>148.9</ele>
        <time>2016-09-25T10:55:16.000+02:00</time>
      </trkpt>
      <trkpt lat="48.71012" lon="2.04142">
        <ele>151.7</ele>
        <time>2016-09-25T10:54:50.000+02:00</time>
      </trkpt>
      <trkpt lat="48.71014" lon="2.0414">
        <ele>153.4</ele>
        <time>2016-09-25T10:54:01.000+02:00</time>
      </trkpt>
      <trkpt lat="48.71014" lon="2.0414">
        <ele>150.3</ele>
        <time>2016-09-25T10:53:22.000+02:00</time>
      </trkpt>
      <trkpt lat="48.71013" lon="2.04138">
        <ele>149.7</ele>
        <time>2016-09-25T10:52:53.000+02:00</time>
      </trkpt>
      <trkpt lat="48.71013" lon="2.04141">
        <ele>150.8</ele>
        <time>2016-09-25T10:52:27.000+02:00</time>
      </trkpt>
      <trkpt lat="48.71013" lon="2.0414">
        <ele>152.4</ele>
        <time>2016-09-25T10:51:58.000+02:00</time>
      </trkpt>
      <trkpt lat="48.71012" lon="2.04144">
        <ele>156.3</ele>
        <time>2016-09-25T10:51:29.000+02:00</time>
      </trkpt>
      <trkpt lat="48.71014" lon="2.04143">
        <ele>158.4</ele>
        <time>2016-09-25T10:51:13.000+02:00</time>
      </trkpt>
      <trkpt lat="48.71012" lon="2.0415">
        <ele>161.6</ele>
        <time>2016-09-25T10:50:41.000+02:00</time>
      </trkpt>
      <trkpt lat="48.71013" lon="2.04146">
        <ele>158.5</ele>
        <time>2016-09-25T10:50:13.000+02:00</time>
      </trkpt>
      <trkpt lat="48.71011" lon="2.04146">
        <ele>157.5</ele>
        <time>2016-09-25T10:49:36.000+02:00</time>
      </trkpt>
      <trkpt lat="48.7101" lon="2.04146">
        <ele>158.3</ele>
        <time>2016-09-25T10:48:48.000+02:00</time>
      </trkpt>
      <trkpt lat="48.71015" lon="2.04141">
        <ele>155.3</ele>
        <time>2016-09-25T10:48:34.000+02:00</time>
      </trkpt>
      <trkpt lat="48.71016" lon="2.04138">
        <ele>152.6</ele>
        <time>2016-09-25T10:48:18.000+02:00</time>
      </trkpt>
      <trkpt lat="48.71015" lon="2.0414">
        <ele>152.2</ele>
        <time>2016-09-25T10:48:00.000+02:00</time>
      </trkpt>
      <trkpt lat="48.7101" lon="2.04147">
        <ele>156</ele>
        <time>2016-09-25T10:47:44.000+02:00</time>
      </trkpt>
      <trkpt lat="48.71011" lon="2.04148">
        <ele>157.7</ele>
        <time>2016-09-25T10:47:13.000+02:00</time>
      </trkpt>
      <trkpt lat="48.71011" lon="2.04147">
        <ele>161.4</ele>
        <time>2016-09-25T10:46:49.000+02:00</time>
      </trkpt>
      <trkpt lat="48.71011" lon="2.0414">
        <ele>155.6</ele>
        <time>2016-09-25T10:46:20.000+02:00</time>
      </trkpt>
      <trkpt lat="48.7101" lon="2.04142">
        <ele>157</ele>
        <time>2016-09-25T10:45:57.000+02:00</time>
      </trkpt>
      <trkpt lat="48.7101" lon="2.0414">
        <ele>151</ele>
        <time>2016-09-25T10:45:36.000+02:00</time>
      </trkpt>
      <trkpt lat="48.71013" lon="2.0414">
        <ele>147.7</ele>
        <time>2016-09-25T10:45:14.000+02:00</time>
      </trkpt>
      <trkpt lat="48.71012" lon="2.04137">
        <ele>147.9</ele>
        <time>2016-09-25T10:44:37.000+02:00</time>
      </trkpt>
      <trkpt lat="48.71012" lon="2.04136">
        <ele>146.3</ele>
        <time>2016-09-25T10:44:16.000+02:00</time>
      </trkpt>
      <trkpt lat="48.7102" lon="2.04138">
        <ele>150.4</ele>
        <time>2016-09-25T10:43:57.000+02:00</time>
      </trkpt>
      <trkpt lat="48.71027" lon="2.04133">
        <ele>151.3</ele>
        <time>2016-09-25T10:43:41.000+02:00</time>
      </trkpt>
      <trkpt lat="48.71034" lon="2.04126">
        <ele>148.2</ele>
        <time>2016-09-25T10:43:33.000+02:00</time>
      </trkpt>
      <trkpt lat="48.71041" lon="2.0412">
        <ele>149.8</ele>
        <time>2016-09-25T10:43:21.000+02:00</time>
      </trkpt>
      <trkpt lat="48.71041" lon="2.04109">
        <ele>149.2</ele>
        <time>2016-09-25T10:43:06.000+02:00</time>
      </trkpt>
      <trkpt lat="48.71032" lon="2.04111">
        <ele>152.9</ele>
        <time>2016-09-25T10:42:55.000+02:00</time>
      </trkpt>
      <trkpt lat="48.71024" lon="2.0411">
        <ele>150.1</ele>
        <time>2016-09-25T10:42:42.000+02:00</time>
      </trkpt>
      <trkpt lat="48.71021" lon="2.04103">
        <ele>146.1</ele>
        <time>2016-09-25T10:42:30.000+02:00</time>
      </trkpt>
      <trkpt lat="48.7102" lon="2.04103">
        <ele>139.3</ele>
        <time>2016-09-25T10:42:18.000+02:00</time>
      </trkpt>
      <trkpt lat="48.71014" lon="2.04097">
        <ele>141.7</ele>
        <time>2016-09-25T10:42:02.000+02:00</time>
      </trkpt>
      <trkpt lat="48.71014" lon="2.0409">
        <ele>137.7</ele>
        <time>2016-09-25T10:41:47.000+02:00</time>
      </trkpt>
      <trkpt lat="48.7101" lon="2.04084">
        <ele>141.2</ele>
        <time>2016-09-25T10:41:29.000+02:00</time>
      </trkpt>
      <trkpt lat="48.71005" lon="2.04078">
        <ele>140.6</ele>
        <time>2016-09-25T10:41:16.000+02:00</time>
      </trkpt>
      <trkpt lat="48.71" lon="2.04069">
        <ele>147.1</ele>
        <time>2016-09-25T10:41:05.000+02:00</time>
      </trkpt>
      <trkpt lat="48.70995" lon="2.04062">
        <ele>149.9</ele>
        <time>2016-09-25T10:40:54.000+02:00</time>
      </trkpt>
      <trkpt lat="48.71001" lon="2.04052">
        <ele>135.3</ele>
        <time>2016-09-25T10:40:44.000+02:00</time>
      </trkpt>
      <trkpt lat="48.71004" lon="2.04041">
        <ele>128.4</ele>
        <time>2016-09-25T10:40:33.000+02:00</time>
      </trkpt>
      <trkpt lat="48.70999" lon="2.04039">
        <ele>128.8</ele>
        <time>2016-09-25T10:40:25.000+02:00</time>
      </trkpt>
      <trkpt lat="48.71" lon="2.04036">
        <ele>129.2</ele>
        <time>2016-09-25T10:40:13.000+02:00</time>
      </trkpt>
      <trkpt lat="48.70995" lon="2.04047">
        <ele>127.9</ele>
        <time>2016-09-25T10:40:06.000+02:00</time>
      </trkpt>
      <trkpt lat="48.70989" lon="2.04059">
        <ele>122.5</ele>
        <time>2016-09-25T10:39:57.000+02:00</time>
      </trkpt>
      <trkpt lat="48.70982" lon="2.04067">
        <ele>124.5</ele>
        <time>2016-09-25T10:39:46.000+02:00</time>
      </trkpt>
      <trkpt lat="48.70976" lon="2.04072">
        <ele>130.7</ele>
        <time>2016-09-25T10:39:36.000+02:00</time>
      </trkpt>
      <trkpt lat="48.70973" lon="2.04059">
        <ele>131.7</ele>
        <time>2016-09-25T10:39:29.000+02:00</time>
      </trkpt>
      <trkpt lat="48.70974" lon="2.04042">
        <ele>131.8</ele>
        <time>2016-09-25T10:39:22.000+02:00</time>
      </trkpt>
      <trkpt lat="48.70974" lon="2.04028">
        <ele>136.1</ele>
        <time>2016-09-25T10:39:16.000+02:00</time>
      </trkpt>
      <trkpt lat="48.70976" lon="2.04017">
        <ele>139.1</ele>
        <time>2016-09-25T10:39:04.000+02:00</time>
      </trkpt>
      <trkpt lat="48.70978" lon="2.04006">
        <ele>139.3</ele>
        <time>2016-09-25T10:38:55.000+02:00</time>
      </trkpt>
      <trkpt lat="48.70983" lon="2.04002">
        <ele>131.9</ele>
        <time>2016-09-25T10:38:45.000+02:00</time>
      </trkpt>
      <trkpt lat="48.70981" lon="2.03988">
        <ele>132.7</ele>
        <time>2016-09-25T10:38:36.000+02:00</time>
      </trkpt>
      <trkpt lat="48.70983" lon="2.03976">
        <ele>136.1</ele>
        <time>2016-09-25T10:38:25.000+02:00</time>
      </trkpt>
      <trkpt lat="48.70987" lon="2.0397">
        <ele>123.3</ele>
        <time>2016-09-25T10:38:14.000+02:00</time>
      </trkpt>
      <trkpt lat="48.7099" lon="2.03957">
        <ele>122.4</ele>
        <time>2016-09-25T10:38:03.000+02:00</time>
      </trkpt>
      <trkpt lat="48.70992" lon="2.03948">
        <ele>120.9</ele>
        <time>2016-09-25T10:37:53.000+02:00</time>
      </trkpt>
      <trkpt lat="48.70993" lon="2.03937">
        <ele>118.6</ele>
        <time>2016-09-25T10:37:44.000+02:00</time>
      </trkpt>
      <trkpt lat="48.7099" lon="2.03924">
        <ele>112.6</ele>
        <time>2016-09-25T10:37:35.000+02:00</time>
      </trkpt>
      <trkpt lat="48.70984" lon="2.0392">
        <ele>111.1</ele>
        <time>2016-09-25T10:37:23.000+02:00</time>
      </trkpt>
      <trkpt lat="48.70977" lon="2.03913">
        <ele>110.7</ele>
        <time>2016-09-25T10:37:12.000+02:00</time>
      </trkpt>
      <trkpt lat="48.7097" lon="2.03904">
        <ele>112.7</ele>
        <time>2016-09-25T10:37:01.000+02:00</time>
      </trkpt>
      <trkpt lat="48.70964" lon="2.03897">
        <ele>104.2</ele>
        <time>2016-09-25T10:36:49.000+02:00</time>
      </trkpt>
      <trkpt lat="48.70956" lon="2.03892">
        <ele>100.7</ele>
        <time>2016-09-25T10:36:36.000+02:00</time>
      </trkpt>
      <trkpt lat="48.70948" lon="2.03884">
        <ele>103.7</ele>
        <time>2016-09-25T10:36:25.000+02:00</time>
      </trkpt>
      <trkpt lat="48.70939" lon="2.03877">
        <ele>101.9</ele>
        <time>2016-09-25T10:36:15.000+02:00</time>
      </trkpt>
      <trkpt lat="48.70931" lon="2.03874">
        <ele>102.1</ele>
        <time>2016-09-25T10:36:08.000+02:00</time>
      </trkpt>
      <trkpt lat="48.70921" lon="2.0387">
        <ele>106.2</ele>
        <time>2016-09-25T10:35:59.000+02:00</time>
      </trkpt>
      <trkpt lat="48.70912" lon="2.03866">
        <ele>109.2</ele>
        <time>2016-09-25T10:35:52.000+02:00</time>
      </trkpt>
      <trkpt lat="48.70903" lon="2.03862">
        <ele>109.8</ele>
        <time>2016-09-25T10:35:43.000+02:00</time>
      </trkpt>
      <trkpt lat="48.70894" lon="2.03857">
        <ele>114.4</ele>
        <time>2016-09-25T10:35:33.000+02:00</time>
      </trkpt>
      <trkpt lat="48.70889" lon="2.03856">
        <ele>102.2</ele>
        <time>2016-09-25T10:35:13.000+02:00</time>
      </trkpt>
      <trkpt lat="48.70892" lon="2.0385">
        <ele>94</ele>
        <time>2016-09-25T10:34:56.000+02:00</time>
      </trkpt>
      <trkpt lat="48.70866" lon="2.03886">
        <ele>92.8</ele>
      </trkpt>
      <trkpt lat="48.70866" lon="2.0397">
        <ele>93.8</ele>
      </trkpt>
      <trkpt lat="48.70839" lon="2.03969">
        <ele>90.6</ele>
      </trkpt>
      <trkpt lat="48.70834" lon="2.03942">
        <ele>90</ele>
      </trkpt>
      <trkpt lat="48.70827" lon="2.03931">
        <ele>89.8</ele>
      </trkpt>
      <trkpt lat="48.70815" lon="2.03935">
        <ele>89.3</ele>
      </trkpt>
      <trkpt lat="48.70816" lon="2.03946">
        <ele>89.3</ele>
      </trkpt>
      <trkpt lat="48.70757" lon="2.03981">
        <ele>84.4</ele>
      </trkpt>
      <trkpt lat="48.70744" lon="2.03931">
        <ele>82.8</ele>
      </trkpt>
      <trkpt lat="48.70718" lon="2.03961">
        <ele>81.2</ele>
      </trkpt>
      <trkpt lat="48.70664" lon="2.0398">
        <ele>78.3</ele>
      </trkpt>
      <trkpt lat="48.70544" lon="2.03821">
        <ele>78.6</ele>
      </trkpt>
      <trkpt lat="48.70543" lon="2.0377">
        <ele>79.5</ele>
      </trkpt>
      <trkpt lat="48.70462" lon="2.0376">
        <ele>80.4</ele>
      </trkpt>
      <trkpt lat="48.70344" lon="2.03614">
        <ele>84.1</ele>
      </trkpt>
      <trkpt lat="48.7012" lon="2.03555">
        <ele>99.3</ele>
      </trkpt>
      <trkpt lat="48.70164" lon="2.03617">
        <ele>99.4</ele>
      </trkpt>
      <trkpt lat="48.7021" lon="2.0379">
        <ele>99.9</ele>
      </trkpt>
      <trkpt lat="48.70261" lon="2.03962">
        <ele>98</ele>
      </trkpt>
      <trkpt lat="48.70274" lon="2.04032">
        <ele>96.3</ele>
      </trkpt>
      <trkpt lat="48.70105" lon="2.04085">
        <ele>110.4</ele>
      </trkpt>
      <trkpt lat="48.69997" lon="2.04076">
        <ele>124.3</ele>
      </trkpt>
      <trkpt lat="48.69942" lon="2.04035">
        <ele>135.3</ele>
      </trkpt>
      <trkpt lat="48.69917" lon="2.04069">
        <ele>145.2</ele>
      </trkpt>
      <trkpt lat="48.69924" lon="2.04137">
        <ele>148.9</ele>
      </trkpt>
      <trkpt lat="48.69907" lon="2.04198">
        <ele>155.8</ele>
      </trkpt>
      <trkpt lat="48.69822" lon="2.04231">
        <ele>163.2</ele>
      </trkpt>
      <trkpt lat="48.69799" lon="2.04251">
        <ele>164.2</ele>
      </trkpt>
      <trkpt lat="48.69734" lon="2.0436">
        <ele>163.8</ele>
      </trkpt>
      <trkpt lat="48.69684" lon="2.04403">
        <ele>164.1</ele>
      </trkpt>
      <trkpt lat="48.69674" lon="2.04413">
        <ele>165</ele>
      </trkpt>
      <trkpt lat="48.69674" lon="2.04463">
        <ele>164.2</ele>
      </trkpt>
      <trkpt lat="48.69682" lon="2.04516">
        <ele>163.3</ele>
      </trkpt>
      <trkpt lat="48.69692" lon="2.04533">
        <ele>162.7</ele>
      </trkpt>
      <trkpt lat="48.69727" lon="2.04539">
        <ele>158.7</ele>
      </trkpt>
      <trkpt lat="48.69751" lon="2.04563">
        <ele>158.4</ele>
      </trkpt>
      <trkpt lat="48.6975" lon="2.04582">
        <ele>159.9</ele>
      </trkpt>
      <trkpt lat="48.69777" lon="2.04601">
        <ele>158.4</ele>
      </trkpt>
      <trkpt lat="48.69784" lon="2.04868">
        <ele>153.9</ele>
      </trkpt>
      <trkpt lat="48.69728" lon="2.05043">
        <ele>154.7</ele>
      </trkpt>
      <trkpt lat="48.69703" lon="2.05193">
        <ele>156.5</ele>
      </trkpt>
      <trkpt lat="48.69705" lon="2.05355">
        <ele>156.5</ele>
      </trkpt>
      <trkpt lat="48.69473" lon="2.05462">
        <ele>159.1</ele>
      </trkpt>
      <trkpt lat="48.69424" lon="2.05499">
        <ele>158.1</ele>
      </trkpt>
      <trkpt lat="48.6945" lon="2.05529">
        <ele>150.3</ele>
      </trkpt>
      <trkpt lat="48.6949" lon="2.05536">
        <ele>148.2</ele>
      </trkpt>
      <trkpt lat="48.69512" lon="2.05556">
        <ele>147.8</ele>
      </trkpt>
      <trkpt lat="48.69496" lon="2.05905">
        <ele>103.9</ele>
      </trkpt>
      <trkpt lat="48.69567" lon="2.05897">
        <ele>105.4</ele>
      </trkpt>
      <trkpt lat="48.69773" lon="2.0598">
        <ele>104.1</ele>
      </trkpt>
      <trkpt lat="48.69917" lon="2.06078">
        <ele>94.2</ele>
      </trkpt>
      <trkpt lat="48.7006" lon="2.06248">
        <ele>85.9</ele>
      </trkpt>
      <trkpt lat="48.70176" lon="2.06502">
        <ele>81</ele>
      </trkpt>
      <trkpt lat="48.70234" lon="2.06723">
        <ele>77.5</ele>
      </trkpt>
      <trkpt lat="48.70256" lon="2.0687">
        <ele>79.9</ele>
      </trkpt>
      <trkpt lat="48.70262" lon="2.06966">
        <ele>80.9</ele>
      </trkpt>
      <trkpt lat="48.70404" lon="2.06969">
        <ele>73.9</ele>
      </trkpt>
      <trkpt lat="48.70404" lon="2.06904">
        <ele>73.4</ele>
      </trkpt>
    </trkseg>
  </trk>
</gpx>